Time;durP1;ratioP1;P1;durP2;ratioP2;P2;SDS_P1;SDS_P2;PMS_P1;PMS_P2;Temp;Humidity;BMP_temperature;BMP_pressure;BME280_temperature;BME280_humidity;BME280_pressure;Samples;Min_cycle;Max_cycle;Signal;HPM_P1;HPM_P2
2021/07/31 00:01:06;;;;;;;17.77;13.00;;;16.20;96.80;;;;;;5070128;28;20057;-67
2021/07/31 00:03:32;;;;;;;17.52;11.23;;;16.20;96.90;;;;;;5089334;28;20111;-68
2021/07/31 00:05:58;;;;;;;16.05;10.98;;;16.10;96.70;;;;;;5090905;28;20116;-68
2021/07/31 00:08:24;;;;;;;14.23;10.95;;;16.20;96.70;;;;;;5089024;28;20035;-68
2021/07/31 00:10:50;;;;;;;17.30;11.63;;;16.20;96.70;;;;;;5070678;28;20443;-68
2021/07/31 00:13:16;;;;;;;19.73;12.82;;;16.20;96.90;;;;;;5080293;28;20036;-67
2021/07/31 00:15:42;;;;;;;19.85;14.23;;;16.10;96.80;;;;;;5066288;28;20100;-67
2021/07/31 00:18:08;;;;;;;21.73;14.85;;;16.10;97.10;;;;;;5084289;28;20429;-68
2021/07/31 00:20:33;;;;;;;24.25;14.63;;;16.20;97.10;;;;;;5089220;28;20115;-68
2021/07/31 00:22:59;;;;;;;24.15;15.25;;;16.10;97.20;;;;;;5066851;28;20170;-67
2021/07/31 00:25:25;;;;;;;22.65;15.00;;;16.10;97.30;;;;;;5069498;28;20449;-68
2021/07/31 00:27:50;;;;;;;21.70;14.60;;;16.00;97.30;;;;;;5070659;28;20080;-67
2021/07/31 00:30:16;;;;;;;24.63;14.95;;;16.00;97.40;;;;;;5054135;28;20427;-68
2021/07/31 00:32:41;;;;;;;22.58;15.43;;;16.00;97.40;;;;;;5087794;28;20071;-67
2021/07/31 00:35:07;;;;;;;23.02;15.77;;;16.00;97.50;;;;;;5088505;28;20126;-67
2021/07/31 00:37:33;;;;;;;24.17;16.30;;;16.00;97.70;;;;;;5088983;28;20376;-67
2021/07/31 00:39:59;;;;;;;25.83;15.75;;;15.90;97.70;;;;;;5088967;28;20035;-68
2021/07/31 00:42:24;;;;;;;25.55;16.63;;;15.80;97.70;;;;;;5066691;28;20427;-68
2021/07/31 00:44:50;;;;;;;25.10;16.15;;;15.80;97.80;;;;;;5068102;28;20499;-68
2021/07/31 00:47:16;;;;;;;20.45;14.82;;;15.80;97.70;;;;;;5069972;28;20032;-67
2021/07/31 00:49:43;;;;;;;23.65;15.18;;;15.80;97.80;;;;;;5089669;28;20472;-67
2021/07/31 00:52:08;;;;;;;25.67;16.85;;;15.70;97.80;;;;;;5070169;28;20415;-67
2021/07/31 00:54:35;;;;;;;28.88;16.95;;;15.60;97.80;;;;;;5089025;28;20039;-68
2021/07/31 00:57:01;;;;;;;20.05;15.18;;;15.60;97.90;;;;;;5068919;28;20029;-68
2021/07/31 00:59:27;;;;;;;27.38;16.45;;;15.50;97.90;;;;;;5052635;28;20567;-67
2021/07/31 01:01:52;;;;;;;26.30;15.82;;;15.50;98.00;;;;;;5065266;28;20139;-67
2021/07/31 01:04:19;;;;;;;24.65;16.15;;;15.50;98.00;;;;;;5070018;28;20403;-67
2021/07/31 01:06:44;;;;;;;25.90;16.65;;;15.50;98.10;;;;;;5071481;28;20469;-67
2021/07/31 01:09:10;;;;;;;25.95;17.00;;;15.50;98.20;;;;;;5087981;28;20020;-68
2021/07/31 01:11:36;;;;;;;26.45;16.80;;;15.50;98.10;;;;;;5070635;28;20542;-68
2021/07/31 01:14:03;;;;;;;28.95;16.65;;;15.50;98.20;;;;;;5066969;28;20020;-67
2021/07/31 01:16:28;;;;;;;19.42;13.07;;;15.40;98.20;;;;;;5087386;28;20027;-67
2021/07/31 01:18:54;;;;;;;17.08;12.63;;;15.40;98.20;;;;;;5087838;28;20024;-67
2021/07/31 01:21:40;;;;;;;20.20;11.95;;;15.40;98.10;;;;;;5066537;28;20020;-67
2021/07/31 01:24:07;;;;;;;16.13;9.73;;;15.30;98.00;;;;;;5048958;28;20530;-68
2021/07/31 01:26:38;;;;;;;15.23;9.88;;;15.30;97.70;;;;;;5070758;28;20115;-68
2021/07/31 01:29:06;;;;;;;12.93;8.77;;;15.20;97.50;;;;;;5067732;28;20028;-68
2021/07/31 01:31:32;;;;;;;14.57;9.13;;;15.20;97.20;;;;;;5086798;28;20050;-68
2021/07/31 01:33:58;;;;;;;13.25;8.70;;;15.10;97.20;;;;;;5085018;28;20054;-68
2021/07/31 01:36:23;;;;;;;13.13;8.55;;;15.00;97.10;;;;;;5067932;28;20017;-67
2021/07/31 01:38:49;;;;;;;15.55;8.55;;;15.00;97.30;;;;;;5085842;28;20473;-67
2021/07/31 01:41:14;;;;;;;11.82;8.20;;;14.90;97.30;;;;;;5086724;28;20032;-67
2021/07/31 01:43:40;;;;;;;11.02;8.13;;;15.00;97.30;;;;;;5084619;28;20020;-68
2021/07/31 01:46:06;;;;;;;12.73;9.05;;;14.90;97.40;;;;;;5086656;28;20032;-68
2021/07/31 01:48:31;;;;;;;15.40;8.15;;;14.80;97.30;;;;;;5068087;28;20027;-67
2021/07/31 01:50:57;;;;;;;12.52;7.07;;;14.80;97.40;;;;;;5069259;28;20097;-68
2021/07/31 01:53:22;;;;;;;11.63;7.60;;;14.70;97.20;;;;;;5087621;28;20511;-68
2021/07/31 01:55:48;;;;;;;12.25;7.38;;;14.70;97.10;;;;;;5065711;28;20028;-68
2021/07/31 01:58:14;;;;;;;12.00;7.60;;;14.60;97.10;;;;;;5067859;28;20031;-68
2021/07/31 02:00:40;;;;;;;14.23;7.43;;;14.60;97.00;;;;;;5086429;28;20468;-67
2021/07/31 02:03:05;;;;;;;9.95;7.10;;;14.50;97.00;;;;;;5086202;28;20036;-68
2021/07/31 02:05:31;;;;;;;11.02;7.28;;;14.50;97.20;;;;;;5066960;28;20060;-67
2021/07/31 02:07:56;;;;;;;11.88;7.53;;;14.50;97.10;;;;;;5068309;28;20495;-68
2021/07/31 02:10:22;;;;;;;10.88;7.13;;;14.50;97.20;;;;;;5087270;28;20020;-68
2021/07/31 02:12:48;;;;;;;11.90;7.95;;;14.40;97.30;;;;;;5065132;28;20405;-68
2021/07/31 02:15:13;;;;;;;13.27;7.93;;;14.30;97.30;;;;;;5067802;28;20119;-67
2021/07/31 02:17:39;;;;;;;11.23;7.72;;;14.40;97.30;;;;;;5087407;28;20031;-68
2021/07/31 02:20:05;;;;;;;12.10;8.43;;;14.40;97.40;;;;;;5069375;28;20036;-67
2021/07/31 02:22:31;;;;;;;16.35;8.98;;;14.40;97.50;;;;;;5051792;28;20031;-67
2021/07/31 02:24:56;;;;;;;15.23;9.68;;;14.40;97.50;;;;;;5087728;28;20495;-67
2021/07/31 02:27:22;;;;;;;15.32;8.60;;;14.50;97.70;;;;;;5065228;28;20066;-68
2021/07/31 02:29:48;;;;;;;15.38;8.95;;;14.50;97.60;;;;;;5063149;28;20502;-67
2021/07/31 02:32:14;;;;;;;11.98;8.70;;;14.50;97.60;;;;;;5084914;28;20035;-67
2021/07/31 02:34:40;;;;;;;18.45;8.73;;;14.50;97.60;;;;;;5086516;28;20028;-67
2021/07/31 02:37:05;;;;;;;12.70;7.28;;;14.50;97.60;;;;;;5070079;28;20405;-67
2021/07/31 02:39:31;;;;;;;12.25;7.70;;;14.40;97.50;;;;;;5065189;28;20093;-67
2021/07/31 02:41:56;;;;;;;16.30;8.18;;;14.30;97.50;;;;;;5084160;28;20036;-67
2021/07/31 02:44:22;;;;;;;11.15;7.38;;;14.30;97.50;;;;;;5065916;28;20329;-67
2021/07/31 02:46:48;;;;;;;14.02;6.95;;;14.30;97.50;;;;;;5082130;28;20024;-67
2021/07/31 02:49:13;;;;;;;11.73;6.32;;;14.30;97.40;;;;;;5086579;28;20056;-67
2021/07/31 02:51:39;;;;;;;8.95;5.90;;;14.30;97.30;;;;;;5087845;28;20407;-67
2021/07/31 02:54:04;;;;;;;12.93;6.45;;;14.30;97.00;;;;;;5048527;28;20024;-67
2021/07/31 02:56:30;;;;;;;11.30;5.85;;;14.40;96.90;;;;;;5092044;28;20248;-67
2021/07/31 02:58:56;;;;;;;11.23;5.82;;;14.40;96.60;;;;;;5090336;28;20027;-67
2021/07/31 03:01:21;;;;;;;10.30;5.35;;;14.50;96.60;;;;;;5072119;28;20439;-68
2021/07/31 03:03:47;;;;;;;7.03;5.45;;;14.40;96.40;;;;;;5089677;28;20031;-67
2021/07/31 03:06:12;;;;;;;10.85;5.72;;;14.40;96.30;;;;;;5070399;28;20028;-67
2021/07/31 03:08:38;;;;;;;10.07;5.75;;;14.50;96.10;;;;;;5089919;28;20252;-68
2021/07/31 03:11:07;;;;;;;11.48;5.43;;;14.50;96.20;;;;;;5072333;28;20119;-67
2021/07/31 03:13:33;;;;;;;9.35;5.43;;;14.40;95.90;;;;;;5088889;28;20471;-67
2021/07/31 03:15:58;;;;;;;8.38;4.80;;;14.50;96.00;;;;;;5083792;28;20028;-67
2021/07/31 03:18:25;;;;;;;10.00;5.40;;;14.40;96.00;;;;;;5090630;28;20036;-67
2021/07/31 03:20:53;;;;;;;7.25;4.80;;;14.50;96.20;;;;;;5072346;28;20043;-67
2021/07/31 03:23:22;;;;;;;8.18;4.57;;;14.50;95.90;;;;;;5068262;28;20568;-67
2021/07/31 03:25:47;;;;;;;11.52;4.55;;;14.50;95.90;;;;;;5071436;28;20028;-67
2021/07/31 03:28:14;;;;;;;8.88;4.80;;;14.50;95.90;;;;;;5090298;28;20024;-67
2021/07/31 03:30:44;;;;;;;11.10;4.82;;;14.40;96.00;;;;;;5072081;28;20069;-68
2021/07/31 03:33:11;;;;;;;8.23;4.03;;;14.50;96.00;;;;;;5066586;28;20189;-67
2021/07/31 03:35:38;;;;;;;9.25;4.55;;;14.50;95.90;;;;;;5072856;28;20035;-67
2021/07/31 03:38:04;;;;;;;7.50;4.38;;;14.50;95.80;;;;;;5071058;28;20024;-67
2021/07/31 03:40:30;;;;;;;14.38;4.43;;;14.50;95.90;;;;;;5083479;28;20057;-67
2021/07/31 03:42:56;;;;;;;7.85;4.72;;;14.50;96.00;;;;;;5087912;28;20389;-68
2021/07/31 03:45:22;;;;;;;9.07;4.75;;;14.50;96.00;;;;;;5088451;28;20036;-67
2021/07/31 03:47:47;;;;;;;6.78;4.30;;;14.50;95.90;;;;;;5065175;28;20020;-68
2021/07/31 03:50:13;;;;;;;8.65;4.07;;;14.50;95.90;;;;;;5054630;28;20024;-67
2021/07/31 03:52:39;;;;;;;11.38;4.30;;;14.50;95.70;;;;;;5036011;28;20037;-68
2021/07/31 03:55:06;;;;;;;8.70;4.18;;;14.50;95.60;;;;;;5072743;28;20024;-67
2021/07/31 03:57:32;;;;;;;12.75;4.30;;;14.50;95.40;;;;;;5085640;28;20024;-68
2021/07/31 03:59:58;;;;;;;9.77;4.38;;;14.50;94.90;;;;;;5071353;28;20559;-67
2021/07/31 04:02:23;;;;;;;5.88;3.35;;;14.50;95.00;;;;;;5088030;28;20028;-67
2021/07/31 04:04:49;;;;;;;8.88;3.92;;;14.60;94.30;;;;;;5088121;28;20028;-67
2021/07/31 04:07:15;;;;;;;6.55;3.70;;;14.60;94.50;;;;;;5088692;28;20028;-67
2021/07/31 04:09:40;;;;;;;10.60;3.90;;;14.60;94.50;;;;;;5072082;28;20032;-68
2021/07/31 04:12:06;;;;;;;10.15;3.70;;;14.60;94.20;;;;;;5070462;28;20396;-68
2021/07/31 04:14:32;;;;;;;6.25;4.07;;;14.60;94.50;;;;;;5090649;28;20480;-67
2021/07/31 04:16:57;;;;;;;7.13;3.60;;;14.60;94.40;;;;;;5067793;28;20511;-67
2021/07/31 04:19:23;;;;;;;8.88;3.92;;;14.60;94.50;;;;;;5071954;28;20032;-68
2021/07/31 04:21:53;;;;;;;9.02;3.85;;;14.60;94.70;;;;;;5087295;28;20047;-68
2021/07/31 04:24:22;;;;;;;9.10;3.60;;;14.50;94.50;;;;;;5068521;28;20028;-67
2021/07/31 04:26:48;;;;;;;10.02;3.28;;;14.50;94.40;;;;;;5058292;28;20297;-67
2021/07/31 04:29:14;;;;;;;6.97;3.67;;;14.40;94.70;;;;;;5068688;28;20102;-67
2021/07/31 04:31:40;;;;;;;5.80;2.85;;;14.40;94.20;;;;;;5069417;28;20035;-67
2021/07/31 04:34:06;;;;;;;7.63;3.30;;;14.50;94.10;;;;;;5069731;28;20408;-67
2021/07/31 04:36:32;;;;;;;8.95;3.45;;;14.60;94.50;;;;;;5088821;28;20081;-67
2021/07/31 04:38:58;;;;;;;7.93;3.42;;;14.60;94.40;;;;;;5053496;28;20293;-67
2021/07/31 04:41:23;;;;;;;5.47;3.13;;;14.60;93.60;;;;;;5066759;28;20031;-67
2021/07/31 04:43:49;;;;;;;5.90;3.30;;;14.70;93.90;;;;;;5070440;28;20031;-67
2021/07/31 04:46:15;;;;;;;6.45;3.05;;;14.70;93.10;;;;;;5069649;28;20121;-67
2021/07/31 04:48:40;;;;;;;8.52;3.20;;;14.80;93.50;;;;;;5063021;28;20028;-67
2021/07/31 04:51:06;;;;;;;6.78;2.90;;;14.70;92.90;;;;;;5065387;28;20078;-67
2021/07/31 04:53:32;;;;;;;8.73;3.20;;;14.70;92.30;;;;;;5084076;28;20023;-67
2021/07/31 04:55:58;;;;;;;6.18;2.97;;;14.70;92.50;;;;;;5087053;28;20171;-67
2021/07/31 04:58:23;;;;;;;8.38;2.88;;;14.70;92.10;;;;;;5087836;28;20056;-67
2021/07/31 05:00:50;;;;;;;7.22;2.65;;;14.80;91.20;;;;;;5069319;28;20020;-67
2021/07/31 05:03:16;;;;;;;6.78;2.92;;;14.90;91.40;;;;;;5088091;28;20111;-67
2021/07/31 05:05:45;;;;;;;5.30;2.72;;;15.00;91.50;;;;;;5071668;28;20145;-68
2021/07/31 05:08:12;;;;;;;7.25;2.50;;;15.10;90.30;;;;;;5088093;28;20056;-67
2021/07/31 05:10:42;;;;;;;6.40;2.53;;;15.10;90.60;;;;;;5081659;28;20016;-67
2021/07/31 05:13:08;;;;;;;7.25;2.95;;;15.10;90.30;;;;;;5069071;28;20047;-67
2021/07/31 05:15:38;;;;;;;7.00;2.25;;;15.00;90.10;;;;;;5087431;28;20028;-67
2021/07/31 05:18:08;;;;;;;8.13;2.17;;;15.10;90.00;;;;;;5068191;28;20103;-67
2021/07/31 05:20:38;;;;;;;3.38;2.00;;;15.00;90.00;;;;;;5086164;28;20385;-67
2021/07/31 05:23:03;;;;;;;4.78;2.10;;;15.00;89.40;;;;;;5087422;28;20517;-67
2021/07/31 05:25:29;;;;;;;4.50;2.10;;;15.00;89.80;;;;;;5066022;28;20020;-67
2021/07/31 05:27:55;;;;;;;5.55;2.00;;;15.00;89.70;;;;;;5067380;28;20028;-67
2021/07/31 05:30:21;;;;;;;7.50;2.30;;;14.90;89.70;;;;;;5086920;28;20055;-67
2021/07/31 05:32:46;;;;;;;8.55;2.10;;;15.00;89.20;;;;;;5028237;28;20037;-68
2021/07/31 05:35:12;;;;;;;6.13;2.25;;;15.00;89.40;;;;;;5069770;28;20028;-68
2021/07/31 05:37:38;;;;;;;9.60;2.55;;;15.00;89.10;;;;;;5083756;28;20028;-68
2021/07/31 05:40:04;;;;;;;8.45;2.50;;;15.10;89.90;;;;;;5069318;28;20086;-68
2021/07/31 05:42:30;;;;;;;4.78;1.92;;;15.10;88.80;;;;;;5086311;28;20034;-67
2021/07/31 05:45:04;;;;;;;12.50;2.28;;;15.10;88.00;;;;;;5082002;28;20028;-68
2021/07/31 05:47:30;;;;;;;9.18;2.90;;;15.20;88.50;;;;;;5083026;28;20361;-67
2021/07/31 05:49:57;;;;;;;5.10;2.00;;;15.20;88.00;;;;;;5086485;28;20473;-68
2021/07/31 05:52:26;;;;;;;4.32;1.95;;;15.30;87.30;;;;;;5086875;28;20028;-68
2021/07/31 05:54:58;;;;;;;6.65;2.15;;;15.40;87.30;;;;;;5065690;28;20036;-68
2021/07/31 05:57:24;;;;;;;4.78;2.00;;;15.40;88.00;;;;;;5083940;28;20032;-67
2021/07/31 05:59:51;;;;;;;5.82;2.15;;;15.50;87.00;;;;;;5086924;28;20020;-67
2021/07/31 06:02:17;;;;;;;10.40;2.20;;;15.50;86.80;;;;;;5085830;28;20115;-67
2021/07/31 06:04:43;;;;;;;4.43;2.08;;;15.50;86.90;;;;;;5087968;28;20024;-67
2021/07/31 06:07:10;;;;;;;5.22;2.08;;;15.50;86.80;;;;;;5067334;28;20403;-68
2021/07/31 06:09:37;;;;;;;7.82;2.20;;;15.60;86.10;;;;;;5068286;28;20036;-68
2021/07/31 06:12:04;;;;;;;4.65;2.00;;;15.60;86.30;;;;;;5030080;28;20077;-68
2021/07/31 06:14:32;;;;;;;6.97;1.98;;;15.70;86.50;;;;;;5061542;28;20028;-68
2021/07/31 06:16:58;;;;;;;6.40;1.95;;;15.70;86.80;;;;;;5068221;28;20038;-67
2021/07/31 06:19:23;;;;;;;5.72;1.95;;;15.70;86.20;;;;;;5067086;28;20111;-68
2021/07/31 06:21:49;;;;;;;7.47;2.17;;;15.80;86.30;;;;;;5084003;28;20471;-68
2021/07/31 06:24:14;;;;;;;4.45;1.80;;;15.80;85.80;;;;;;5086078;28;20114;-67
2021/07/31 06:26:40;;;;;;;6.88;2.10;;;15.80;85.80;;;;;;5087065;28;20035;-68
2021/07/31 06:29:06;;;;;;;7.00;2.00;;;16.00;86.70;;;;;;5002428;28;20056;-68
2021/07/31 06:31:31;;;;;;;5.70;1.80;;;16.00;85.50;;;;;;5081414;28;20495;-67
2021/07/31 06:33:58;;;;;;;4.50;1.60;;;16.10;84.80;;;;;;5081380;28;20437;-67
2021/07/31 06:36:24;;;;;;;11.82;2.08;;;16.10;84.90;;;;;;5064619;28;20027;-67
2021/07/31 06:38:49;;;;;;;6.22;1.95;;;16.30;85.20;;;;;;5084613;28;20028;-67
2021/07/31 06:41:15;;;;;;;5.70;1.83;;;16.20;84.00;;;;;;5085001;28;20063;-68
2021/07/31 06:43:40;;;;;;;5.32;2.15;;;16.30;84.60;;;;;;5087088;28;20039;-68
2021/07/31 06:46:14;;;;;;;4.40;1.80;;;16.20;84.40;;;;;;5084834;28;20460;-67
2021/07/31 06:48:41;;;;;;;5.57;2.08;;;16.30;84.20;;;;;;5086700;28;20020;-68
2021/07/31 06:51:07;;;;;;;3.72;1.83;;;16.20;83.70;;;;;;5073713;28;20043;-67
2021/07/31 06:53:33;;;;;;;5.70;1.80;;;16.40;84.30;;;;;;5085478;28;20070;-67
2021/07/31 06:55:59;;;;;;;4.90;2.08;;;16.60;82.60;;;;;;5051606;28;20462;-68
2021/07/31 06:58:26;;;;;;;5.47;1.95;;;16.70;82.30;;;;;;5083102;28;20034;-68
2021/07/31 07:00:51;;;;;;;7.50;1.95;;;16.70;82.50;;;;;;5084812;28;20059;-68
2021/07/31 07:03:17;;;;;;;5.53;1.92;;;16.80;81.90;;;;;;5048969;28;20033;-67
2021/07/31 07:05:43;;;;;;;5.88;2.10;;;16.80;81.70;;;;;;5088426;28;20464;-68
2021/07/31 07:08:08;;;;;;;7.45;2.25;;;16.80;80.90;;;;;;5052964;28;20036;-68
2021/07/31 07:10:34;;;;;;;7.70;1.77;;;16.90;81.00;;;;;;5070030;28;20078;-68
2021/07/31 07:13:00;;;;;;;4.63;1.85;;;16.80;80.30;;;;;;5067318;28;20575;-68
2021/07/31 07:15:28;;;;;;;7.07;2.22;;;16.90;80.80;;;;;;5060581;28;20270;-67
2021/07/31 07:17:55;;;;;;;4.38;1.95;;;17.00;80.90;;;;;;5082101;28;20032;-68
2021/07/31 07:20:21;;;;;;;5.90;1.88;;;17.00;81.40;;;;;;5065501;28;20040;-67
2021/07/31 07:22:47;;;;;;;5.57;1.65;;;16.70;80.70;;;;;;5085879;28;20126;-67
2021/07/31 07:25:12;;;;;;;7.50;1.92;;;16.60;81.90;;;;;;5086169;28;20071;-68
2021/07/31 07:27:38;;;;;;;6.68;2.20;;;16.50;81.50;;;;;;5085909;28;20085;-67
2021/07/31 07:30:05;;;;;;;6.35;1.98;;;16.50;81.20;;;;;;5065617;28;20417;-67
2021/07/31 07:32:30;;;;;;;6.10;2.20;;;16.40;81.60;;;;;;5066766;28;20112;-67
2021/07/31 07:34:56;;;;;;;4.25;2.13;;;16.30;82.20;;;;;;5064950;28;20111;-68
2021/07/31 07:37:22;;;;;;;6.15;2.10;;;16.30;81.60;;;;;;5068912;28;20453;-68
2021/07/31 07:39:53;;;;;;;5.90;1.92;;;16.30;82.80;;;;;;5084624;28;20040;-68
2021/07/31 07:42:19;;;;;;;5.82;1.98;;;16.30;82.90;;;;;;5069284;28;20040;-67
2021/07/31 07:44:44;;;;;;;4.82;2.47;;;16.30;84.20;;;;;;5083636;28;20424;-68
2021/07/31 07:47:10;;;;;;;3.35;2.00;;;16.20;83.50;;;;;;5086112;28;20028;-68
2021/07/31 07:49:36;;;;;;;7.68;2.08;;;16.10;84.00;;;;;;5070216;28;20016;-67
2021/07/31 07:52:03;;;;;;;6.05;2.42;;;16.10;84.00;;;;;;5086840;28;20027;-67
2021/07/31 07:54:29;;;;;;;7.85;2.38;;;16.10;84.20;;;;;;5085464;28;20417;-69
2021/07/31 07:56:56;;;;;;;7.35;2.40;;;16.00;85.00;;;;;;5069421;28;20024;-67
2021/07/31 07:59:21;;;;;;;10.73;2.67;;;16.10;85.10;;;;;;5063424;28;20078;-67
2021/07/31 08:01:47;;;;;;;4.95;2.35;;;16.10;85.80;;;;;;5080315;28;20026;-68
2021/07/31 08:04:13;;;;;;;4.95;2.30;;;16.30;84.40;;;;;;5059994;28;20553;-67
2021/07/31 08:06:39;;;;;;;5.43;2.60;;;16.70;83.30;;;;;;5051512;28;20237;-67
2021/07/31 08:09:04;;;;;;;6.80;2.53;;;17.10;82.60;;;;;;5063330;28;20530;-67
2021/07/31 08:11:31;;;;;;;6.22;2.40;;;17.30;81.70;;;;;;5067841;28;20502;-68
2021/07/31 08:13:56;;;;;;;4.18;1.95;;;17.50;80.80;;;;;;5068779;28;20502;-68
2021/07/31 08:16:22;;;;;;;8.52;1.95;;;17.50;79.70;;;;;;5071535;28;20028;-67
2021/07/31 08:18:47;;;;;;;5.65;1.75;;;17.30;80.00;;;;;;5088722;28;20157;-68
2021/07/31 08:21:13;;;;;;;3.65;1.90;;;17.40;79.80;;;;;;5068867;28;20032;-68
2021/07/31 08:23:41;;;;;;;3.05;1.70;;;17.30;79.00;;;;;;5065078;28;20119;-68
2021/07/31 08:26:12;;;;;;;3.22;1.70;;;17.40;78.50;;;;;;5064983;28;20226;-68
2021/07/31 08:28:39;;;;;;;3.85;1.70;;;17.30;79.20;;;;;;5062893;28;20028;-67
2021/07/31 08:31:06;;;;;;;6.40;1.90;;;17.20;79.20;;;;;;5058698;28;20429;-68
2021/07/31 08:33:32;;;;;;;4.45;1.80;;;17.10;80.30;;;;;;5059969;28;20039;-68
2021/07/31 08:35:59;;;;;;;5.18;2.08;;;17.40;79.90;;;;;;5060310;28;20405;-67
2021/07/31 08:38:24;;;;;;;3.58;1.70;;;17.40;79.40;;;;;;5080228;28;20495;-68
2021/07/31 08:40:50;;;;;;;7.50;1.52;;;17.70;79.00;;;;;;5080983;28;20024;-67
2021/07/31 08:43:16;;;;;;;5.38;2.10;;;17.70;78.70;;;;;;5062340;28;20509;-68
2021/07/31 08:45:42;;;;;;;8.38;2.30;;;17.60;78.70;;;;;;5087762;28;20055;-68
2021/07/31 08:48:09;;;;;;;5.15;1.75;;;17.30;79.30;;;;;;5069112;28;20288;-67
2021/07/31 08:50:37;;;;;;;6.05;1.90;;;17.20;79.20;;;;;;5086647;28;20472;-68
2021/07/31 08:53:02;;;;;;;6.28;1.80;;;17.50;78.40;;;;;;5065677;28;20122;-67
2021/07/31 08:55:28;;;;;;;6.47;2.13;;;17.60;78.10;;;;;;5086786;28;20440;-67
2021/07/31 08:57:54;;;;;;;5.18;2.20;;;17.50;77.90;;;;;;5088049;28;20027;-67
2021/07/31 09:00:20;;;;;;;3.63;2.05;;;17.50;78.00;;;;;;5088572;28;20024;-68
2021/07/31 09:02:47;;;;;;;8.77;1.90;;;17.40;78.60;;;;;;5070086;28;20111;-67
2021/07/31 09:05:32;;;;;;;5.55;2.30;;;17.30;79.50;;;;;;5089773;28;20073;-67
2021/07/31 09:08:05;;;;;;;6.50;2.40;;;17.40;79.20;;;;;;5088626;28;20028;-67
2021/07/31 09:10:32;;;;;;;6.45;2.20;;;17.40;78.80;;;;;;5085539;28;20440;-67
2021/07/31 09:13:06;;;;;;;6.03;2.10;;;17.40;79.60;;;;;;5086329;28;20036;-68
2021/07/31 09:15:32;;;;;;;4.15;2.10;;;17.40;78.50;;;;;;5082855;28;20067;-67
2021/07/31 09:18:21;;;;;;;7.03;2.05;;;17.50;79.40;;;;;;5068662;28;20119;-67
2021/07/31 09:20:57;;;;;;;7.82;2.20;;;17.50;78.60;;;;;;5078977;28;20043;-68
2021/07/31 09:23:23;;;;;;;4.20;1.75;;;17.90;78.00;;;;;;5070839;28;20028;-67
2021/07/31 09:26:00;;;;;;;7.55;2.15;;;18.40;75.90;;;;;;5069458;28;20031;-68
2021/07/31 09:28:27;;;;;;;3.97;1.95;;;19.10;73.70;;;;;;5086768;28;20504;-68
2021/07/31 09:30:52;;;;;;;6.28;1.85;;;19.00;73.30;;;;;;5069219;28;20032;-67
2021/07/31 09:33:18;;;;;;;4.07;1.50;;;19.60;72.10;;;;;;5070305;28;20396;-68
2021/07/31 09:35:49;;;;;;;2.83;1.58;;;19.50;71.70;;;;;;5053892;28;20024;-68
2021/07/31 09:38:15;;;;;;;3.73;1.60;;;19.30;72.40;;;;;;5063315;28;20074;-68
2021/07/31 09:40:41;;;;;;;4.05;1.63;;;19.40;72.30;;;;;;5086268;28;20345;-68
2021/07/31 09:43:15;;;;;;;3.22;1.50;;;19.40;72.10;;;;;;5085259;28;20145;-68
2021/07/31 09:45:40;;;;;;;4.35;1.70;;;19.00;72.30;;;;;;5085556;28;20032;-68
2021/07/31 09:48:08;;;;;;;7.00;1.60;;;19.00;73.90;;;;;;5069257;28;20028;-68
2021/07/31 09:50:42;;;;;;;4.03;1.70;;;18.50;74.10;;;;;;5057098;28;20012;-68
2021/07/31 09:53:21;;;;;;;6.03;1.55;;;18.60;74.30;;;;;;5086143;28;20383;-67
2021/07/31 09:55:49;;;;;;;8.55;1.60;;;18.20;75.10;;;;;;5084131;28;20097;-67
2021/07/31 09:58:19;;;;;;;5.80;1.80;;;18.20;75.40;;;;;;5064244;28;20020;-67
2021/07/31 10:00:50;;;;;;;8.07;1.75;;;18.50;75.80;;;;;;5087713;28;20135;-67
2021/07/31 10:03:16;;;;;;;3.53;1.35;;;18.90;74.50;;;;;;5085284;28;20031;-68
2021/07/31 10:05:43;;;;;;;6.00;1.52;;;18.80;73.20;;;;;;5069711;28;20027;-67
2021/07/31 10:08:13;;;;;;;3.58;1.60;;;19.00;72.20;;;;;;5085916;28;20028;-68
2021/07/31 10:10:39;;;;;;;3.97;1.58;;;19.10;71.90;;;;;;5086137;28;20440;-67
2021/07/31 10:13:05;;;;;;;3.92;1.40;;;19.20;70.90;;;;;;5086366;28;20039;-68
2021/07/31 10:15:32;;;;;;;5.95;1.65;;;19.60;70.00;;;;;;5085765;28;20028;-67
2021/07/31 10:17:59;;;;;;;6.65;1.52;;;19.20;70.60;;;;;;5086331;28;20061;-68
2021/07/31 10:20:29;;;;;;;3.58;1.35;;;19.00;70.80;;;;;;5069370;28;20032;-68
2021/07/31 10:22:55;;;;;;;3.90;1.37;;;18.70;72.00;;;;;;5064469;28;20035;-68
2021/07/31 10:25:23;;;;;;;5.20;1.67;;;18.50;72.60;;;;;;5087365;28;20396;-67
2021/07/31 10:27:49;;;;;;;3.80;1.58;;;18.30;78.40;;;;;;5079910;28;20024;-68
2021/07/31 10:30:47;;;;;;;2.88;1.40;;;18.20;79.40;;;;;;5086956;28;20036;-67
2021/07/31 10:33:50;;;;;;;7.07;1.75;;;18.70;79.10;;;;;;5047046;28;20032;-67
2021/07/31 10:36:36;;;;;;;3.08;1.13;;;19.50;79.60;;;;;;5083090;28;20126;-68
2021/07/31 10:39:34;;;;;;;4.07;1.02;;;19.90;75.60;;;;;;5074478;28;20118;-68
2021/07/31 10:42:02;;;;;;;1.38;0.80;;;20.20;72.80;;;;;;5027264;28;20109;-68
2021/07/31 10:44:29;;;;;;;2.15;0.88;;;19.30;71.90;;;;;;5064364;28;20028;-68
2021/07/31 10:47:20;;;;;;;1.60;1.08;;;19.00;74.10;;;;;;5063318;28;20032;-67
2021/07/31 10:49:46;;;;;;;7.27;1.30;;;18.70;75.00;;;;;;5081980;28;20174;-68
2021/07/31 10:52:50;;;;;;;3.83;1.40;;;18.50;75.90;;;;;;5085489;28;20025;-68
2021/07/31 10:55:46;;;;;;;1.83;1.00;;;18.50;75.00;;;;;;5066179;28;20085;-68
2021/07/31 10:58:16;;;;;;;5.57;1.55;;;18.50;74.90;;;;;;5060760;28;20035;-68
2021/07/31 11:01:21;;;;;;;2.90;1.05;;;19.20;75.80;;;;;;5086654;28;20569;-69
2021/07/31 11:03:47;;;;;;;3.22;1.17;;;19.00;73.20;;;;;;5086457;28;20032;-67
2021/07/31 11:06:13;;;;;;;3.00;1.17;;;19.30;74.00;;;;;;5063643;28;20344;-67
2021/07/31 11:08:45;;;;;;;2.90;1.40;;;19.90;73.20;;;;;;5064970;28;20109;-68
2021/07/31 11:11:14;;;;;;;4.57;1.48;;;19.60;72.90;;;;;;5065806;28;20059;-68
2021/07/31 11:13:46;;;;;;;5.40;1.13;;;19.50;73.00;;;;;;5063601;28;20025;-67
2021/07/31 11:16:14;;;;;;;3.97;1.23;;;19.40;74.20;;;;;;5066403;28;20080;-68
2021/07/31 11:18:44;;;;;;;3.97;1.45;;;19.10;74.70;;;;;;5090380;28;20035;-67
2021/07/31 11:21:13;;;;;;;4.30;1.23;;;18.80;75.40;;;;;;5087962;28;20040;-68
2021/07/31 11:23:40;;;;;;;3.83;1.27;;;18.60;75.80;;;;;;5081664;28;20085;-68
2021/07/31 11:26:06;;;;;;;4.18;1.38;;;18.50;76.40;;;;;;5070507;28;20035;-67
2021/07/31 11:28:33;;;;;;;5.72;1.55;;;18.60;75.20;;;;;;5072061;28;20032;-67
2021/07/31 11:30:59;;;;;;;4.65;1.40;;;18.60;75.40;;;;;;5071553;28;20019;-67
2021/07/31 11:33:30;;;;;;;2.90;1.35;;;18.70;74.70;;;;;;5071723;28;20024;-67
2021/07/31 11:35:58;;;;;;;4.30;1.40;;;18.70;75.00;;;;;;5072623;28;20024;-67
2021/07/31 11:38:35;;;;;;;5.30;1.40;;;18.70;75.10;;;;;;5090550;28;20305;-67
2021/07/31 11:41:08;;;;;;;2.33;1.45;;;18.70;76.00;;;;;;5089538;28;20047;-67
2021/07/31 11:43:53;;;;;;;5.00;1.67;;;18.50;75.60;;;;;;5070110;28;20025;-67
2021/07/31 11:46:41;;;;;;;4.90;1.50;;;18.40;77.10;;;;;;5065685;28;20061;-67
2021/07/31 11:49:22;;;;;;;2.40;1.30;;;18.00;78.80;;;;;;5052630;28;20038;-68
2021/07/31 11:51:48;;;;;;;3.28;1.90;;;17.70;79.90;;;;;;5058208;28;20028;-68
2021/07/31 11:54:14;;;;;;;3.88;1.70;;;17.40;83.00;;;;;;5092090;28;20032;-67
2021/07/31 11:56:42;;;;;;;2.95;1.70;;;17.10;83.80;;;;;;5086869;28;20039;-68
2021/07/31 11:59:09;;;;;;;6.85;2.47;;;17.00;85.10;;;;;;5071867;28;20601;-68
2021/07/31 12:01:38;;;;;;;4.82;1.90;;;17.00;84.50;;;;;;5088996;28;20423;-68
2021/07/31 12:04:04;;;;;;;5.47;1.60;;;17.20;81.90;;;;;;5083901;28;20047;-68
2021/07/31 12:06:40;;;;;;;3.17;1.67;;;17.50;81.70;;;;;;5053730;28;20024;-68
2021/07/31 12:09:18;;;;;;;3.85;1.70;;;17.50;81.00;;;;;;5068241;28;20115;-69
2021/07/31 12:11:44;;;;;;;4.50;1.80;;;17.40;82.40;;;;;;5087894;28;20024;-68
2021/07/31 12:14:32;;;;;;;2.90;1.77;;;17.30;81.90;;;;;;5068397;28;20035;-68
2021/07/31 12:17:10;;;;;;;3.33;1.63;;;17.10;82.70;;;;;;5068529;28;20415;-68
2021/07/31 12:19:40;;;;;;;6.10;2.30;;;16.90;84.80;;;;;;5063092;28;20126;-68
2021/07/31 12:22:10;;;;;;;5.63;2.17;;;16.70;86.30;;;;;;5067467;28;20031;-68
2021/07/31 12:24:36;;;;;;;4.18;2.10;;;16.80;85.60;;;;;;5068718;28;20027;-68
2021/07/31 12:27:02;;;;;;;7.22;2.05;;;16.90;86.00;;;;;;5069859;28;20034;-67
2021/07/31 12:29:37;;;;;;;4.05;2.00;;;17.20;84.90;;;;;;5070597;28;20071;-67
2021/07/31 12:32:29;;;;;;;3.00;1.77;;;17.50;83.30;;;;;;5070473;28;20062;-67
2021/07/31 12:34:55;;;;;;;4.55;1.77;;;18.00;82.30;;;;;;5083269;28;20065;-67
2021/07/31 12:37:22;;;;;;;3.67;1.85;;;18.50;80.90;;;;;;5088415;28;20028;-67
2021/07/31 12:39:52;;;;;;;3.17;1.75;;;18.50;82.80;;;;;;5081134;28;20036;-68
2021/07/31 12:42:20;;;;;;;4.53;1.92;;;18.00;83.90;;;;;;5086997;28;20042;-68
2021/07/31 12:44:46;;;;;;;3.17;2.08;;;17.60;86.60;;;;;;5067924;28;20035;-68
2021/07/31 12:47:11;;;;;;;3.85;2.15;;;17.30;87.90;;;;;;5070363;28;20028;-67